My Meet Scores
Lindsay Litke, American Gymnastics Training Center - MyMeetScores.com
Top100 | Top Teams | Upcoming Meets | Completed Meets | Latest | Add Scores | Help| Support | Bookmark and Share

Lindsay Litke, American Gymnastics Training Center
Personal Bests
LevelVault BarsBeamFloorAA
XB9.2759.375 9.4759.55036.850
XS8.8509.175 9.3509.30035.850
Meet Scores
Date Meet Team Session Level Division Vault Bars Beam Floor AA
2020-02-21 Pink Invitational ~ Gymnasts Unite American Gymnastics Training Center SF2 XS 11 yrs. 8.350 15 8.875 12T 9.050 8T 9.300 7T 35.575 11
2020-01-24 American Invitational 2020 American Gymnastics Training Center 6 XS JR 8.600 9 8.600 7 9.100 2 8.650 9 34.950 9
2020-01-10 Little Boston Invitational American Gymnastics Training Center C08 XS INT 8.400 12 9.150 7T 9.200 5 8.925 6 35.675 9
2019-05-04 2019 CT XCEL Silver State Championship American Gymnastics Training Center 5 XS Jr A 8.800 12T 9.175 5 8.825 11 9.050 5 35.850 8
2019-04-06 Shoreline Twister Invitational American Gymnastics Training Center 2 XS Younger 8.600 15T 8.800 12T 9.200 9T 8.900 9T 35.500 13
2019-02-16 Chelsea Piers Winter Challenge American Gymnastics Training Center F2 XS Middle 8.850 21T 8.900 23T 9.100 16T 8.650 25* 35.500 24T
2019-01-25 Kinetic Kids Invitational 2019 American Gymnastics Training Center 3 XS Jr B 7.700 11 8.750 9 8.650 8 8.600 9 33.700 11
2019-01-18 22nd Annual Star Struck Invitational American Gymnastics Training Center 6D XS Jr C 8.100 14 7.900 14 9.350 4 9.200 5 34.550 13T
2018-12-08 American Gymnastics Invitational American Gymnastics Training Center 6 XS Child 8.500 6 8.050 10 9.000 7T 9.125 4 34.675 10
2018-11-17 2018 Connecticut Judge's Cup American Gymnastics Training Center 4 XS 10 yrs. 8.450 35T 8.700 36T 8.650 34T 8.850 14T 34.650 35
2018-11-02 Muriel Grossfeld Invitational American Gymnastics Training Center 5 XS Jr B 8.500 16T 8.450 16 8.700 12 8.650 13T 34.300 16
2018-04-14 2018 Connecticut XB State Championship American Gymnastics Training Center 3 XB Ch 9-11 9.000 41T 9.175 37T 9.150 6 8.975 24T 36.300 18T
2018-02-16 Chelsea Piers Winter Challenge American Gymnastics Training Center C-6 XB Child 8.350 13T 9.000 11T 8.500 11 9.100 8 34.950 12
2018-01-26 2018 American Invitational American Gymnastics Training Center 5B XB Younger 9.000 7T 8.950 5T 9.400 3 9.500 1 36.850 2
2018-01-19 Beauty And The Beast Invitational American Gymnastics Training Center 12 XB B 8.050 10T 9.375 4T 8.975 7 9.000 9 35.400 9
2017-05-13 2017 Xcel Bronze Connecticut State Cup American Gymnastics Training Center 1 XB All Ages 9.275 15T 9.100 26* 8.525 38T 9.225 10T 36.125 24T
2017-03-02 2017 Holiday Costume Cup American Gymnastics Training Center 2 XB Younger 9.100 4T 8.900 8 8.700 8 9.550 1 36.250 4
2017-02-10 Team Challenge 2017 American Gymnastics Training Center 04B XB Child 7.850 14 9.050 1 9.475 4 9.125 1 35.500 4
2017-01-27 24th Annual American Invitational American Gymnastics Training Center 1A XB Child 8.100 22 8.500 14T 9.050 5 9.000 4T 34.650 11
2017-01-13 20th Annual Star Struck Invitational American Gymnastics Training Center 1D XB Mids 8.200 11 9.100 5 8.900 7 8.750 7 34.950 7
Get your scores on
a t-shirt, pin, or hoodie

www.lazysuits.com